Richmond, CA (94807)

8:48 AM PST on December 22, 2014 (GMT -0800)
Central Richmond | Change Station
CLOSE
Current Station
Personal Weather Station
Location: Richmond, CA
Elevation: 69 ft
Nearby Weather Stations
Active Advisory: Coastal Flood Advisory

Elev 69 ft 37.93 °N, 122.35 °W | Updated 17 seconds ago

Fog
Fog
54.5 °F
Feels Like 54.5 °F
N
0.0
Wind Variable Wind from North
Gusts 0.0 mph

Today
High -- | Low -- °F
--% Chance of Precip.
Yesterday
High -- | Low -- °F
Precip. -- in
7:22 AM 4:54 PM
New Moon, 1% visible
Pressure 30.28 in
Visibility 0.5 miles
Clouds
Dew Point 54 °F
Humidity 99%
Rainfall 0.00 in
Snow Depth Not available.
UV Not available.
Pollen 4.40 out of 12
Air Quality Not available.
Flu Activity Not available.
SPECI KOAK 221625Z 00000KT 1/2SM FG VV002 12/12 A3028 RMK AO2

More Conditions Fewer Conditions

Pressure 30.28 in
Visibility 0.5 miles
Clouds
Dew Point 54 °F
Humidity 99%
Rainfall 0.00 in
Snow Depth Not available.
UV Not available.
Pollen 4.40 out of 12
Air Quality Not available.
Flu Activity Not available.
SPECI KOAK 221625Z 00000KT 1/2SM FG VV002 12/12 A3028 RMK AO2

More Conditions Fewer Conditions

10-Day Weather Forecast

Almanac

Astronomy

Dec. 22, 2014 Rise Set
Actual Time
Civil Twilight
Nautical Twilight
Astronomical Twilight
Moon
Length of Visible Light
Length of Day
Tomorrow will be .
, % of the Moon is Illuminated

Today's Extremes

State Highs State Lows

Community

WunderPhotos

Upload Photos

1,779,641 photos uploaded!

WunderBlogs® & News

Nearby

Air Quality

  Air Quality AQ Index Pollutant
Not available.

Snow Depth

Station Depth Elevation

Earthquake Activity

City Distance Mag. Time & Date
Minimum magnitude displayed is 2.5.

Coastal Water Temperatures

Place Temperature

Nearby Weather Stations